sensor_id;sensor_type;location;lat;lon;timestamp;temperature;humidity
65038;DHT22;51605;47.040;15.294;2024-02-04T00:01:39;20.30;50.00
65038;DHT22;51605;47.040;15.294;2024-02-04T00:04:05;20.30;50.10
65038;DHT22;51605;47.040;15.294;2024-02-04T00:06:30;20.40;50.10
65038;DHT22;51605;47.040;15.294;2024-02-04T00:08:56;20.40;50.10
65038;DHT22;51605;47.040;15.294;2024-02-04T00:11:22;20.30;50.00
65038;DHT22;51605;47.040;15.294;2024-02-04T00:13:48;20.40;50.10
65038;DHT22;51605;47.040;15.294;2024-02-04T00:16:14;20.40;50.10
65038;DHT22;51605;47.040;15.294;2024-02-04T00:18:40;20.30;50.00
65038;DHT22;51605;47.040;15.294;2024-02-04T00:21:05;20.30;50.00
65038;DHT22;51605;47.040;15.294;2024-02-04T00:23:31;20.30;50.00
65038;DHT22;51605;47.040;15.294;2024-02-04T00:25:57;20.30;50.00
65038;DHT22;51605;47.040;15.294;2024-02-04T00:28:22;20.30;50.10
65038;DHT22;51605;47.040;15.294;2024-02-04T00:30:48;20.30;50.10
65038;DHT22;51605;47.040;15.294;2024-02-04T00:33:20;20.30;50.10
65038;DHT22;51605;47.040;15.294;2024-02-04T00:35:46;20.30;50.10
65038;DHT22;51605;47.040;15.294;2024-02-04T00:38:12;20.30;50.10
65038;DHT22;51605;47.040;15.294;2024-02-04T00:40:37;20.30;50.00
65038;DHT22;51605;47.040;15.294;2024-02-04T00:43:03;20.30;50.00
65038;DHT22;51605;47.040;15.294;2024-02-04T00:45:29;20.30;50.00
65038;DHT22;51605;47.040;15.294;2024-02-04T00:47:54;20.30;50.00
65038;DHT22;51605;47.040;15.294;2024-02-04T00:50:20;20.30;50.10
65038;DHT22;51605;47.040;15.294;2024-02-04T00:52:46;20.30;50.10
65038;DHT22;51605;47.040;15.294;2024-02-04T00:55:11;20.30;50.00
65038;DHT22;51605;47.040;15.294;2024-02-04T00:57:37;20.30;50.00
65038;DHT22;51605;47.040;15.294;2024-02-04T01:00:03;20.30;50.00
65038;DHT22;51605;47.040;15.294;2024-02-04T01:02:29;20.30;50.30
65038;DHT22;51605;47.040;15.294;2024-02-04T01:04:55;20.30;50.10
65038;DHT22;51605;47.040;15.294;2024-02-04T01:07:21;20.30;50.10
65038;DHT22;51605;47.040;15.294;2024-02-04T01:09:47;20.30;50.10
65038;DHT22;51605;47.040;15.294;2024-02-04T01:12:12;20.30;50.10
65038;DHT22;51605;47.040;15.294;2024-02-04T01:14:38;20.30;50.10
65038;DHT22;51605;47.040;15.294;2024-02-04T01:17:04;20.30;50.00
65038;DHT22;51605;47.040;15.294;2024-02-04T01:19:30;20.30;50.00
65038;DHT22;51605;47.040;15.294;2024-02-04T01:21:55;20.30;50.00
65038;DHT22;51605;47.040;15.294;2024-02-04T01:24:23;20.30;50.10
65038;DHT22;51605;47.040;15.294;2024-02-04T01:26:49;20.30;50.10
65038;DHT22;51605;47.040;15.294;2024-02-04T01:29:15;20.30;50.10
65038;DHT22;51605;47.040;15.294;2024-02-04T01:31:40;20.30;50.10
65038;DHT22;51605;47.040;15.294;2024-02-04T01:34:06;20.30;50.10
65038;DHT22;51605;47.040;15.294;2024-02-04T01:36:32;20.30;50.10
65038;DHT22;51605;47.040;15.294;2024-02-04T01:38:57;20.30;50.00
65038;DHT22;51605;47.040;15.294;2024-02-04T01:41:23;20.30;50.00
65038;DHT22;51605;47.040;15.294;2024-02-04T01:43:51;20.30;50.00
65038;DHT22;51605;47.040;15.294;2024-02-04T01:46:17;20.40;50.10
65038;DHT22;51605;47.040;15.294;2024-02-04T01:48:43;20.30;50.10
65038;DHT22;51605;47.040;15.294;2024-02-04T01:51:09;20.30;50.10
65038;DHT22;51605;47.040;15.294;2024-02-04T01:53:36;20.30;50.10
65038;DHT22;51605;47.040;15.294;2024-02-04T01:56:05;20.40;50.20
65038;DHT22;51605;47.040;15.294;2024-02-04T01:58:31;20.40;50.10
65038;DHT22;51605;47.040;15.294;2024-02-04T02:00:57;20.30;50.10
65038;DHT22;51605;47.040;15.294;2024-02-04T02:03:23;20.30;50.00
65038;DHT22;51605;47.040;15.294;2024-02-04T02:05:49;20.30;50.00
65038;DHT22;51605;47.040;15.294;2024-02-04T02:08:19;20.30;50.00
65038;DHT22;51605;47.040;15.294;2024-02-04T02:10:46;20.30;50.10
65038;DHT22;51605;47.040;15.294;2024-02-04T02:13:22;20.30;50.10
65038;DHT22;51605;47.040;15.294;2024-02-04T02:15:52;20.30;50.10
65038;DHT22;51605;47.040;15.294;2024-02-04T02:18:22;20.30;50.10
65038;DHT22;51605;47.040;15.294;2024-02-04T02:23:31;20.30;50.20
65038;DHT22;51605;47.040;15.294;2024-02-04T02:26:00;20.30;50.10
65038;DHT22;51605;47.040;15.294;2024-02-04T02:28:27;20.30;50.10
65038;DHT22;51605;47.040;15.294;2024-02-04T02:30:52;20.30;50.10
65038;DHT22;51605;47.040;15.294;2024-02-04T02:33:18;20.30;50.10
65038;DHT22;51605;47.040;15.294;2024-02-04T02:35:46;20.30;50.10
65038;DHT22;51605;47.040;15.294;2024-02-04T02:38:27;20.30;50.10
65038;DHT22;51605;47.040;15.294;2024-02-04T02:40:59;20.30;50.10
65038;DHT22;51605;47.040;15.294;2024-02-04T02:43:27;20.30;50.10
65038;DHT22;51605;47.040;15.294;2024-02-04T02:45:53;20.30;50.10
65038;DHT22;51605;47.040;15.294;2024-02-04T02:48:19;20.30;50.00
65038;DHT22;51605;47.040;15.294;2024-02-04T02:50:47;20.40;50.00
65038;DHT22;51605;47.040;15.294;2024-02-04T02:53:13;20.30;50.00
65038;DHT22;51605;47.040;15.294;2024-02-04T02:55:40;20.30;50.00
65038;DHT22;51605;47.040;15.294;2024-02-04T02:58:06;20.30;50.00
65038;DHT22;51605;47.040;15.294;2024-02-04T03:00:33;20.30;50.00
65038;DHT22;51605;47.040;15.294;2024-02-04T03:02:58;20.30;50.20
65038;DHT22;51605;47.040;15.294;2024-02-04T03:05:24;20.30;50.10
65038;DHT22;51605;47.040;15.294;2024-02-04T03:07:50;20.30;50.10
65038;DHT22;51605;47.040;15.294;2024-02-04T03:10:16;20.30;50.20
65038;DHT22;51605;47.040;15.294;2024-02-04T03:12:41;20.30;51.10
65038;DHT22;51605;47.040;15.294;2024-02-04T03:15:07;20.30;50.10
65038;DHT22;51605;47.040;15.294;2024-02-04T03:17:33;20.30;50.10
65038;DHT22;51605;47.040;15.294;2024-02-04T03:19:59;20.30;50.10
65038;DHT22;51605;47.040;15.294;2024-02-04T03:22:24;20.30;50.10
65038;DHT22;51605;47.040;15.294;2024-02-04T03:24:51;20.30;50.10
65038;DHT22;51605;47.040;15.294;2024-02-04T03:27:17;20.30;50.10
65038;DHT22;51605;47.040;15.294;2024-02-04T03:29:43;20.30;50.00
65038;DHT22;51605;47.040;15.294;2024-02-04T03:32:10;20.30;50.00
65038;DHT22;51605;47.040;15.294;2024-02-04T03:34:36;20.30;50.00
65038;DHT22;51605;47.040;15.294;2024-02-04T03:37:02;20.30;50.10
65038;DHT22;51605;47.040;15.294;2024-02-04T03:39:28;20.30;50.00
65038;DHT22;51605;47.040;15.294;2024-02-04T03:41:53;20.30;50.00
65038;DHT22;51605;47.040;15.294;2024-02-04T03:44:19;20.30;50.00
65038;DHT22;51605;47.040;15.294;2024-02-04T03:46:48;20.30;50.10
65038;DHT22;51605;47.040;15.294;2024-02-04T03:49:14;20.30;50.10
65038;DHT22;51605;47.040;15.294;2024-02-04T03:51:40;20.30;50.00
65038;DHT22;51605;47.040;15.294;2024-02-04T03:54:05;20.30;50.10
65038;DHT22;51605;47.040;15.294;2024-02-04T03:56:31;20.30;50.10
65038;DHT22;51605;47.040;15.294;2024-02-04T03:58:57;20.30;50.10
65038;DHT22;51605;47.040;15.294;2024-02-04T04:01:22;20.30;50.10
65038;DHT22;51605;47.040;15.294;2024-02-04T04:03:49;20.30;50.10
65038;DHT22;51605;47.040;15.294;2024-02-04T04:06:14;20.30;50.10
65038;DHT22;51605;47.040;15.294;2024-02-04T04:08:40;20.30;50.10
65038;DHT22;51605;47.040;15.294;2024-02-04T04:11:09;20.30;50.10
65038;DHT22;51605;47.040;15.294;2024-02-04T04:13:35;20.30;50.10
65038;DHT22;51605;47.040;15.294;2024-02-04T04:16:01;20.30;50.10
65038;DHT22;51605;47.040;15.294;2024-02-04T04:18:27;20.30;50.10
65038;DHT22;51605;47.040;15.294;2024-02-04T04:20:52;20.30;50.10
65038;DHT22;51605;47.040;15.294;2024-02-04T04:23:18;20.30;50.10
65038;DHT22;51605;47.040;15.294;2024-02-04T04:25:44;20.30;50.10
65038;DHT22;51605;47.040;15.294;2024-02-04T04:28:09;20.30;50.10
65038;DHT22;51605;47.040;15.294;2024-02-04T04:30:35;20.30;50.10
65038;DHT22;51605;47.040;15.294;2024-02-04T04:33:00;20.30;50.10
65038;DHT22;51605;47.040;15.294;2024-02-04T04:35:26;20.30;50.10
65038;DHT22;51605;47.040;15.294;2024-02-04T04:37:52;20.30;50.10
65038;DHT22;51605;47.040;15.294;2024-02-04T04:40:18;20.30;50.10
65038;DHT22;51605;47.040;15.294;2024-02-04T04:42:44;20.30;50.00
65038;DHT22;51605;47.040;15.294;2024-02-04T04:45:10;20.30;50.10
65038;DHT22;51605;47.040;15.294;2024-02-04T04:47:36;20.30;50.00
65038;DHT22;51605;47.040;15.294;2024-02-04T04:50:03;20.30;50.00
65038;DHT22;51605;47.040;15.294;2024-02-04T04:52:28;20.30;50.10
65038;DHT22;51605;47.040;15.294;2024-02-04T04:54:55;20.30;50.10
65038;DHT22;51605;47.040;15.294;2024-02-04T04:57:21;20.30;50.00
65038;DHT22;51605;47.040;15.294;2024-02-04T04:59:47;20.30;50.00
65038;DHT22;51605;47.040;15.294;2024-02-04T05:02:13;20.30;49.90
65038;DHT22;51605;47.040;15.294;2024-02-04T05:04:41;20.30;50.90
65038;DHT22;51605;47.040;15.294;2024-02-04T05:07:07;20.30;50.00
65038;DHT22;51605;47.040;15.294;2024-02-04T05:09:33;20.30;50.00
65038;DHT22;51605;47.040;15.294;2024-02-04T05:11:59;20.30;50.00
65038;DHT22;51605;47.040;15.294;2024-02-04T05:14:24;20.30;50.00
65038;DHT22;51605;47.040;15.294;2024-02-04T05:16:50;20.30;50.10
65038;DHT22;51605;47.040;15.294;2024-02-04T05:19:15;20.30;50.10
65038;DHT22;51605;47.040;15.294;2024-02-04T05:21:41;20.30;50.10
65038;DHT22;51605;47.040;15.294;2024-02-04T05:24:07;20.30;50.10
65038;DHT22;51605;47.040;15.294;2024-02-04T05:26:32;20.30;50.10
65038;DHT22;51605;47.040;15.294;2024-02-04T05:28:58;20.30;50.10
65038;DHT22;51605;47.040;15.294;2024-02-04T05:31:24;20.30;50.10
65038;DHT22;51605;47.040;15.294;2024-02-04T05:33:51;20.30;50.10
65038;DHT22;51605;47.040;15.294;2024-02-04T05:36:17;20.30;51.10
65038;DHT22;51605;47.040;15.294;2024-02-04T05:38:44;20.30;50.10
65038;DHT22;51605;47.040;15.294;2024-02-04T05:41:10;20.30;50.10
65038;DHT22;51605;47.040;15.294;2024-02-04T05:43:36;20.30;50.00
65038;DHT22;51605;47.040;15.294;2024-02-04T05:46:02;20.30;50.00
65038;DHT22;51605;47.040;15.294;2024-02-04T05:48:28;20.30;50.00
65038;DHT22;51605;47.040;15.294;2024-02-04T05:50:53;20.30;50.00
65038;DHT22;51605;47.040;15.294;2024-02-04T05:53:19;20.30;50.00
65038;DHT22;51605;47.040;15.294;2024-02-04T05:55:45;20.30;50.00
65038;DHT22;51605;47.040;15.294;2024-02-04T05:58:11;20.30;50.00
65038;DHT22;51605;47.040;15.294;2024-02-04T06:00:39;20.30;50.00
65038;DHT22;51605;47.040;15.294;2024-02-04T06:03:05;20.30;50.00
65038;DHT22;51605;47.040;15.294;2024-02-04T06:05:31;20.30;50.10
65038;DHT22;51605;47.040;15.294;2024-02-04T06:07:57;20.30;50.00
65038;DHT22;51605;47.040;15.294;2024-02-04T06:10:22;20.30;50.00
65038;DHT22;51605;47.040;15.294;2024-02-04T06:12:48;20.30;50.00
65038;DHT22;51605;47.040;15.294;2024-02-04T06:15:15;20.30;50.00
65038;DHT22;51605;47.040;15.294;2024-02-04T06:17:41;20.30;50.00
65038;DHT22;51605;47.040;15.294;2024-02-04T06:20:07;20.30;50.00
65038;DHT22;51605;47.040;15.294;2024-02-04T06:22:36;20.20;50.00
65038;DHT22;51605;47.040;15.294;2024-02-04T06:25:03;20.30;51.00
65038;DHT22;51605;47.040;15.294;2024-02-04T06:27:29;20.20;50.10
65038;DHT22;51605;47.040;15.294;2024-02-04T06:29:55;20.30;50.10
65038;DHT22;51605;47.040;15.294;2024-02-04T06:32:21;20.30;50.00
65038;DHT22;51605;47.040;15.294;2024-02-04T06:34:47;20.30;50.00
65038;DHT22;51605;47.040;15.294;2024-02-04T06:37:12;20.30;50.00
65038;DHT22;51605;47.040;15.294;2024-02-04T06:39:38;20.30;50.00
65038;DHT22;51605;47.040;15.294;2024-02-04T06:42:04;20.30;50.10
65038;DHT22;51605;47.040;15.294;2024-02-04T06:44:30;20.30;50.00
65038;DHT22;51605;47.040;15.294;2024-02-04T06:46:56;20.30;50.10
65038;DHT22;51605;47.040;15.294;2024-02-04T06:49:21;20.30;50.00
65038;DHT22;51605;47.040;15.294;2024-02-04T06:51:47;20.30;50.00
65038;DHT22;51605;47.040;15.294;2024-02-04T06:54:14;20.30;50.00
65038;DHT22;51605;47.040;15.294;2024-02-04T06:56:40;20.30;50.60
65038;DHT22;51605;47.040;15.294;2024-02-04T06:59:06;20.30;51.40
65038;DHT22;51605;47.040;15.294;2024-02-04T07:01:32;20.20;51.30
65038;DHT22;51605;47.040;15.294;2024-02-04T07:03:58;20.30;50.90
65038;DHT22;51605;47.040;15.294;2024-02-04T07:06:23;20.40;50.70
65038;DHT22;51605;47.040;15.294;2024-02-04T07:08:49;20.50;50.50
65038;DHT22;51605;47.040;15.294;2024-02-04T07:11:15;20.50;50.40
65038;DHT22;51605;47.040;15.294;2024-02-04T07:13:41;20.60;50.10
65038;DHT22;51605;47.040;15.294;2024-02-04T07:16:07;20.70;49.90
65038;DHT22;51605;47.040;15.294;2024-02-04T07:18:33;20.80;49.70
65038;DHT22;51605;47.040;15.294;2024-02-04T07:20:58;20.90;49.50
65038;DHT22;51605;47.040;15.294;2024-02-04T07:23:24;21.00;49.20
65038;DHT22;51605;47.040;15.294;2024-02-04T07:25:49;21.10;49.20
65038;DHT22;51605;47.040;15.294;2024-02-04T07:28:15;21.20;48.90
65038;DHT22;51605;47.040;15.294;2024-02-04T07:30:41;21.20;48.60
65038;DHT22;51605;47.040;15.294;2024-02-04T07:33:06;21.20;48.50
65038;DHT22;51605;47.040;15.294;2024-02-04T07:35:32;21.30;48.50
65038;DHT22;51605;47.040;15.294;2024-02-04T07:37:58;21.30;48.30
65038;DHT22;51605;47.040;15.294;2024-02-04T07:40:23;21.40;48.20
65038;DHT22;51605;47.040;15.294;2024-02-04T07:42:49;21.50;48.10
65038;DHT22;51605;47.040;15.294;2024-02-04T07:45:15;21.50;47.90
65038;DHT22;51605;47.040;15.294;2024-02-04T07:47:41;21.60;47.60
65038;DHT22;51605;47.040;15.294;2024-02-04T07:50:07;21.70;47.50
65038;DHT22;51605;47.040;15.294;2024-02-04T07:52:33;21.80;47.30
65038;DHT22;51605;47.040;15.294;2024-02-04T07:54:59;21.80;47.20
65038;DHT22;51605;47.040;15.294;2024-02-04T07:57:24;21.80;47.10
65038;DHT22;51605;47.040;15.294;2024-02-04T07:59:50;21.80;47.00
65038;DHT22;51605;47.040;15.294;2024-02-04T08:02:17;21.90;47.00
65038;DHT22;51605;47.040;15.294;2024-02-04T08:04:43;21.90;46.70
65038;DHT22;51605;47.040;15.294;2024-02-04T08:07:15;21.90;47.70
65038;DHT22;51605;47.040;15.294;2024-02-04T08:09:42;21.90;46.70
65038;DHT22;51605;47.040;15.294;2024-02-04T08:12:08;21.90;46.70
65038;DHT22;51605;47.040;15.294;2024-02-04T08:14:35;21.90;46.70
65038;DHT22;51605;47.040;15.294;2024-02-04T08:17:00;21.90;46.70
65038;DHT22;51605;47.040;15.294;2024-02-04T08:19:26;21.90;46.70
65038;DHT22;51605;47.040;15.294;2024-02-04T08:21:52;21.90;46.70
65038;DHT22;51605;47.040;15.294;2024-02-04T08:24:17;21.90;46.70
65038;DHT22;51605;47.040;15.294;2024-02-04T08:26:43;21.90;47.00
65038;DHT22;51605;47.040;15.294;2024-02-04T08:29:08;21.80;46.90
65038;DHT22;51605;47.040;15.294;2024-02-04T08:31:34;21.70;47.10
65038;DHT22;51605;47.040;15.294;2024-02-04T08:34:00;21.70;47.10
65038;DHT22;51605;47.040;15.294;2024-02-04T08:36:25;21.80;47.20
65038;DHT22;51605;47.040;15.294;2024-02-04T08:38:51;21.70;47.10
65038;DHT22;51605;47.040;15.294;2024-02-04T08:41:17;21.80;47.20
65038;DHT22;51605;47.040;15.294;2024-02-04T08:43:43;21.80;47.20
65038;DHT22;51605;47.040;15.294;2024-02-04T08:46:08;21.80;47.20
65038;DHT22;51605;47.040;15.294;2024-02-04T08:48:34;21.80;47.10
65038;DHT22;51605;47.040;15.294;2024-02-04T08:51:00;21.70;47.10
65038;DHT22;51605;47.040;15.294;2024-02-04T08:53:25;21.70;47.10
65038;DHT22;51605;47.040;15.294;2024-02-04T08:55:51;21.80;47.10
65038;DHT22;51605;47.040;15.294;2024-02-04T08:58:17;21.80;47.10
65038;DHT22;51605;47.040;15.294;2024-02-04T09:00:42;21.90;47.00
65038;DHT22;51605;47.040;15.294;2024-02-04T09:03:08;21.90;47.00
65038;DHT22;51605;47.040;15.294;2024-02-04T09:05:33;21.90;46.80
65038;DHT22;51605;47.040;15.294;2024-02-04T09:07:59;22.00;46.70
65038;DHT22;51605;47.040;15.294;2024-02-04T09:10:26;22.00;46.60
65038;DHT22;51605;47.040;15.294;2024-02-04T09:12:52;22.00;46.40
65038;DHT22;51605;47.040;15.294;2024-02-04T09:15:18;22.10;46.40
65038;DHT22;51605;47.040;15.294;2024-02-04T09:17:43;22.00;46.30
65038;DHT22;51605;47.040;15.294;2024-02-04T09:20:09;22.00;46.30
65038;DHT22;51605;47.040;15.294;2024-02-04T09:22:35;22.10;46.40
65038;DHT22;51605;47.040;15.294;2024-02-04T09:25:01;22.10;46.40
65038;DHT22;51605;47.040;15.294;2024-02-04T09:27:26;22.00;46.30
65038;DHT22;51605;47.040;15.294;2024-02-04T09:29:52;22.00;46.40
65038;DHT22;51605;47.040;15.294;2024-02-04T09:32:20;22.00;46.30
65038;DHT22;51605;47.040;15.294;2024-02-04T09:34:46;22.10;46.40
65038;DHT22;51605;47.040;15.294;2024-02-04T09:37:11;22.10;46.40
65038;DHT22;51605;47.040;15.294;2024-02-04T09:39:37;22.10;46.40
65038;DHT22;51605;47.040;15.294;2024-02-04T09:42:03;22.10;46.40
65038;DHT22;51605;47.040;15.294;2024-02-04T09:44:29;22.10;46.40
65038;DHT22;51605;47.040;15.294;2024-02-04T09:46:55;22.10;46.30
65038;DHT22;51605;47.040;15.294;2024-02-04T09:49:24;22.10;46.30
65038;DHT22;51605;47.040;15.294;2024-02-04T09:51:50;22.10;46.30
65038;DHT22;51605;47.040;15.294;2024-02-04T09:54:16;22.10;46.20
65038;DHT22;51605;47.040;15.294;2024-02-04T09:56:44;22.10;46.30
65038;DHT22;51605;47.040;15.294;2024-02-04T09:59:11;22.20;46.40
65038;DHT22;51605;47.040;15.294;2024-02-04T10:01:36;22.20;46.40
65038;DHT22;51605;47.040;15.294;2024-02-04T10:04:02;22.20;46.30
65038;DHT22;51605;47.040;15.294;2024-02-04T10:06:28;22.20;46.20
65038;DHT22;51605;47.040;15.294;2024-02-04T10:08:54;22.20;46.30
65038;DHT22;51605;47.040;15.294;2024-02-04T10:11:20;22.20;46.40
65038;DHT22;51605;47.040;15.294;2024-02-04T10:13:46;22.20;46.40
65038;DHT22;51605;47.040;15.294;2024-02-04T10:16:13;22.20;46.40
65038;DHT22;51605;47.040;15.294;2024-02-04T10:18:42;22.20;46.30
65038;DHT22;51605;47.040;15.294;2024-02-04T10:21:18;22.20;46.30
65038;DHT22;51605;47.040;15.294;2024-02-04T10:23:47;22.20;46.30
65038;DHT22;51605;47.040;15.294;2024-02-04T10:26:13;22.20;46.30
65038;DHT22;51605;47.040;15.294;2024-02-04T10:28:39;22.20;46.40
65038;DHT22;51605;47.040;15.294;2024-02-04T10:31:08;22.20;46.40
65038;DHT22;51605;47.040;15.294;2024-02-04T10:33:35;22.20;46.30
65038;DHT22;51605;47.040;15.294;2024-02-04T10:36:00;22.20;46.50
65038;DHT22;51605;47.040;15.294;2024-02-04T10:38:26;22.20;46.30
65038;DHT22;51605;47.040;15.294;2024-02-04T10:40:54;22.20;46.30
65038;DHT22;51605;47.040;15.294;2024-02-04T10:43:20;22.20;46.30
65038;DHT22;51605;47.040;15.294;2024-02-04T10:45:47;22.20;46.30
65038;DHT22;51605;47.040;15.294;2024-02-04T10:48:15;22.20;46.30
65038;DHT22;51605;47.040;15.294;2024-02-04T10:50:46;22.10;46.20
65038;DHT22;51605;47.040;15.294;2024-02-04T10:53:14;22.10;46.30
65038;DHT22;51605;47.040;15.294;2024-02-04T10:55:41;22.10;46.20
65038;DHT22;51605;47.040;15.294;2024-02-04T10:58:08;22.10;46.30
65038;DHT22;51605;47.040;15.294;2024-02-04T11:00:34;22.10;46.30
65038;DHT22;51605;47.040;15.294;2024-02-04T11:03:00;22.10;46.30
65038;DHT22;51605;47.040;15.294;2024-02-04T11:05:27;22.10;46.30
65038;DHT22;51605;47.040;15.294;2024-02-04T11:07:54;22.10;46.30
65038;DHT22;51605;47.040;15.294;2024-02-04T11:10:21;22.10;46.30
65038;DHT22;51605;47.040;15.294;2024-02-04T11:12:48;22.10;46.30
65038;DHT22;51605;47.040;15.294;2024-02-04T11:15:15;22.10;46.30
65038;DHT22;51605;47.040;15.294;2024-02-04T11:18:03;22.10;46.30
65038;DHT22;51605;47.040;15.294;2024-02-04T11:24:16;22.10;46.30
65038;DHT22;51605;47.040;15.294;2024-02-04T11:26:48;22.10;46.20
65038;DHT22;51605;47.040;15.294;2024-02-04T11:29:14;22.10;46.30
65038;DHT22;51605;47.040;15.294;2024-02-04T11:31:40;22.10;46.30
65038;DHT22;51605;47.040;15.294;2024-02-04T11:34:06;22.10;46.30
65038;DHT22;51605;47.040;15.294;2024-02-04T11:36:38;22.10;47.20
65038;DHT22;51605;47.040;15.294;2024-02-04T11:39:17;22.10;46.30
65038;DHT22;51605;47.040;15.294;2024-02-04T11:41:50;22.10;46.30
65038;DHT22;51605;47.040;15.294;2024-02-04T11:44:26;22.10;46.30
65038;DHT22;51605;47.040;15.294;2024-02-04T11:46:54;22.10;46.30
65038;DHT22;51605;47.040;15.294;2024-02-04T11:49:24;22.10;46.40
65038;DHT22;51605;47.040;15.294;2024-02-04T11:51:51;22.10;46.40
65038;DHT22;51605;47.040;15.294;2024-02-04T11:54:17;22.10;46.50
65038;DHT22;51605;47.040;15.294;2024-02-04T11:56:49;22.10;46.30
65038;DHT22;51605;47.040;15.294;2024-02-04T11:59:29;22.10;46.30
65038;DHT22;51605;47.040;15.294;2024-02-04T12:01:55;22.10;46.30
65038;DHT22;51605;47.040;15.294;2024-02-04T12:04:22;22.10;46.30
65038;DHT22;51605;47.040;15.294;2024-02-04T12:06:48;22.10;46.30
65038;DHT22;51605;47.040;15.294;2024-02-04T12:09:17;22.10;46.30
65038;DHT22;51605;47.040;15.294;2024-02-04T12:11:47;22.10;46.20
65038;DHT22;51605;47.040;15.294;2024-02-04T12:14:13;22.10;46.20
65038;DHT22;51605;47.040;15.294;2024-02-04T12:16:40;22.20;46.30
65038;DHT22;51605;47.040;15.294;2024-02-04T12:19:06;22.10;46.30
65038;DHT22;51605;47.040;15.294;2024-02-04T12:21:32;22.10;46.40
65038;DHT22;51605;47.040;15.294;2024-02-04T12:23:59;22.10;46.40
65038;DHT22;51605;47.040;15.294;2024-02-04T12:26:25;22.10;46.40
65038;DHT22;51605;47.040;15.294;2024-02-04T12:28:51;22.10;46.40
65038;DHT22;51605;47.040;15.294;2024-02-04T12:31:21;22.10;46.40
65038;DHT22;51605;47.040;15.294;2024-02-04T12:34:04;22.10;46.40
65038;DHT22;51605;47.040;15.294;2024-02-04T12:36:31;22.10;46.40
65038;DHT22;51605;47.040;15.294;2024-02-04T12:38:58;22.10;46.40
65038;DHT22;51605;47.040;15.294;2024-02-04T12:41:26;22.10;46.30
65038;DHT22;51605;47.040;15.294;2024-02-04T12:43:53;22.10;46.40
65038;DHT22;51605;47.040;15.294;2024-02-04T12:46:19;22.10;46.40
65038;DHT22;51605;47.040;15.294;2024-02-04T12:48:53;22.10;46.50
65038;DHT22;51605;47.040;15.294;2024-02-04T12:51:32;22.10;46.40
65038;DHT22;51605;47.040;15.294;2024-02-04T12:54:10;22.10;46.30
65038;DHT22;51605;47.040;15.294;2024-02-04T12:59:26;22.10;46.40
65038;DHT22;51605;47.040;15.294;2024-02-04T13:02:03;22.10;46.40
65038;DHT22;51605;47.040;15.294;2024-02-04T13:04:37;22.10;46.40
65038;DHT22;51605;47.040;15.294;2024-02-04T13:07:07;22.10;46.40
65038;DHT22;51605;47.040;15.294;2024-02-04T13:09:35;22.20;46.90
65038;DHT22;51605;47.040;15.294;2024-02-04T13:12:04;22.20;46.40
65038;DHT22;51605;47.040;15.294;2024-02-04T13:14:30;22.20;46.40
65038;DHT22;51605;47.040;15.294;2024-02-04T13:16:55;22.20;47.40
65038;DHT22;51605;47.040;15.294;2024-02-04T13:19:21;22.20;46.50
65038;DHT22;51605;47.040;15.294;2024-02-04T13:21:47;22.20;46.40
65038;DHT22;51605;47.040;15.294;2024-02-04T13:24:12;22.20;46.40
65038;DHT22;51605;47.040;15.294;2024-02-04T13:26:38;22.20;46.50
65038;DHT22;51605;47.040;15.294;2024-02-04T13:29:04;22.20;46.40
65038;DHT22;51605;47.040;15.294;2024-02-04T13:31:30;22.20;46.40
65038;DHT22;51605;47.040;15.294;2024-02-04T13:33:56;22.20;46.40
65038;DHT22;51605;47.040;15.294;2024-02-04T13:36:23;22.20;46.40
65038;DHT22;51605;47.040;15.294;2024-02-04T13:38:49;22.20;46.40
65038;DHT22;51605;47.040;15.294;2024-02-04T13:41:15;22.20;46.40
65038;DHT22;51605;47.040;15.294;2024-02-04T13:43:41;22.20;46.40
65038;DHT22;51605;47.040;15.294;2024-02-04T13:46:06;22.20;46.40
65038;DHT22;51605;47.040;15.294;2024-02-04T13:48:32;22.20;46.40
65038;DHT22;51605;47.040;15.294;2024-02-04T13:50:58;22.20;46.40
65038;DHT22;51605;47.040;15.294;2024-02-04T13:53:24;22.20;46.40
65038;DHT22;51605;47.040;15.294;2024-02-04T13:55:49;22.20;46.40
65038;DHT22;51605;47.040;15.294;2024-02-04T13:58:15;22.20;46.40
65038;DHT22;51605;47.040;15.294;2024-02-04T14:00:43;22.20;46.40
65038;DHT22;51605;47.040;15.294;2024-02-04T14:03:09;22.20;46.50
65038;DHT22;51605;47.040;15.294;2024-02-04T14:05:35;22.10;46.40
65038;DHT22;51605;47.040;15.294;2024-02-04T14:08:01;22.10;46.40
65038;DHT22;51605;47.040;15.294;2024-02-04T14:10:29;22.10;46.40
65038;DHT22;51605;47.040;15.294;2024-02-04T14:12:55;22.10;46.40
65038;DHT22;51605;47.040;15.294;2024-02-04T14:15:20;22.10;46.40
65038;DHT22;51605;47.040;15.294;2024-02-04T14:17:46;22.10;46.40
65038;DHT22;51605;47.040;15.294;2024-02-04T14:20:12;22.10;46.40
65038;DHT22;51605;47.040;15.294;2024-02-04T14:22:39;22.10;46.40
65038;DHT22;51605;47.040;15.294;2024-02-04T14:25:05;22.10;46.50
65038;DHT22;51605;47.040;15.294;2024-02-04T14:27:31;22.10;46.40
65038;DHT22;51605;47.040;15.294;2024-02-04T14:29:57;22.10;46.50
65038;DHT22;51605;47.040;15.294;2024-02-04T14:32:22;22.10;46.40
65038;DHT22;51605;47.040;15.294;2024-02-04T14:34:49;22.10;46.40
65038;DHT22;51605;47.040;15.294;2024-02-04T14:37:16;22.10;46.40
65038;DHT22;51605;47.040;15.294;2024-02-04T14:39:41;22.10;46.40
65038;DHT22;51605;47.040;15.294;2024-02-04T14:42:10;22.10;46.50
65038;DHT22;51605;47.040;15.294;2024-02-04T14:44:36;22.10;46.40
65038;DHT22;51605;47.040;15.294;2024-02-04T14:47:02;22.10;46.40
65038;DHT22;51605;47.040;15.294;2024-02-04T14:49:28;22.10;46.40
65038;DHT22;51605;47.040;15.294;2024-02-04T14:51:54;22.10;46.40
65038;DHT22;51605;47.040;15.294;2024-02-04T14:54:19;22.10;46.40
65038;DHT22;51605;47.040;15.294;2024-02-04T14:56:45;22.10;46.40
65038;DHT22;51605;47.040;15.294;2024-02-04T14:59:13;22.10;46.40
65038;DHT22;51605;47.040;15.294;2024-02-04T15:01:39;22.10;46.40
65038;DHT22;51605;47.040;15.294;2024-02-04T15:04:04;22.10;46.40
65038;DHT22;51605;47.040;15.294;2024-02-04T15:06:30;22.10;46.40
65038;DHT22;51605;47.040;15.294;2024-02-04T15:08:58;22.10;46.40
65038;DHT22;51605;47.040;15.294;2024-02-04T15:11:26;22.10;46.40
65038;DHT22;51605;47.040;15.294;2024-02-04T15:13:52;22.10;46.40
65038;DHT22;51605;47.040;15.294;2024-02-04T15:16:18;22.10;46.40
65038;DHT22;51605;47.040;15.294;2024-02-04T15:18:44;22.10;46.40
65038;DHT22;51605;47.040;15.294;2024-02-04T15:21:11;22.10;46.40